Luger, Wisconsin
Current Conditions -  °F | °C
As of 9:55 PM on Wednesday 17 Dec 2014 (Local Time) from KPBH Reporting Station
Overcast Overcast  
Wind Chill:   Ceiling: 1200
Heat Index: 21°   Visibility: 10mi
Dew Point: 18°   Wind: 13mph
Humidity: 86%   Direction: 30°NNE
Pressure: 30.22"   Gusts: NA
Location:  45.7439°N, 90.2959°W
Report Text: KPBH 180355Z AUTO 03011KT 10SM OVC012 M06/M08 A3022 RMK AO2 T10601080
Loading
Personal Weather Stations






























Interactive Weather Map New forecast layout! Learn more

10-Day Weather Forecast

Advertisements
Track Severe Weather on mobile